createdAt,value
2018-07-30T00:02:46.078Z,98.30
2018-07-30T00:05:14.966Z,98.20
2018-07-30T00:07:43.811Z,98.20
2018-07-30T00:10:12.768Z,98.20
2018-07-30T00:12:41.659Z,98.30
2018-07-30T00:15:10.520Z,98.30
2018-07-30T00:17:39.343Z,98.20
2018-07-30T00:20:08.267Z,98.30
2018-07-30T00:22:37.095Z,98.20
2018-07-30T00:25:05.940Z,98.40
2018-07-30T00:27:34.734Z,98.40
2018-07-30T00:30:04.214Z,98.30
2018-07-30T00:32:33.044Z,98.00
2018-07-30T00:35:01.861Z,98.20
2018-07-30T00:37:30.711Z,98.30
2018-07-30T00:40:01.562Z,98.70
2018-07-30T00:44:59.128Z,98.80
2018-07-30T00:47:27.975Z,98.60
2018-07-30T00:49:57.859Z,98.60
2018-07-30T00:52:26.683Z,98.70
2018-07-30T00:54:55.583Z,98.60
2018-07-30T00:57:24.390Z,98.40
2018-07-30T00:59:53.298Z,98.60
2018-07-30T01:02:22.138Z,98.70
2018-07-30T01:04:50.983Z,98.80
2018-07-30T01:07:19.815Z,98.80
2018-07-30T01:09:48.699Z,98.80
2018-07-30T01:12:17.559Z,98.80
2018-07-30T01:14:46.390Z,99.00
2018-07-30T01:17:15.259Z,99.10
2018-07-30T01:19:44.219Z,99.10
2018-07-30T01:22:13.203Z,99.10
2018-07-30T01:24:42.005Z,99.10
2018-07-30T01:29:39.714Z,99.10
2018-07-30T01:32:08.556Z,99.10
2018-07-30T01:34:37.399Z,99.00
2018-07-30T01:37:06.226Z,99.00
2018-07-30T01:39:35.408Z,99.00
2018-07-30T01:42:04.275Z,99.20
2018-07-30T01:44:33.154Z,99.10
2018-07-30T01:47:01.992Z,99.30
2018-07-30T01:51:59.759Z,99.70
2018-07-30T01:54:28.600Z,99.40
2018-07-30T01:56:57.451Z,99.50
2018-07-30T01:59:28.331Z,99.50
2018-07-30T02:01:57.163Z,99.40
2018-07-30T02:04:26.008Z,99.50
2018-07-30T02:06:54.818Z,99.60
2018-07-30T02:09:23.732Z,99.50
2018-07-30T02:11:52.581Z,99.60
2018-07-30T02:14:21.451Z,99.50
2018-07-30T02:16:50.318Z,99.50
2018-07-30T02:21:47.999Z,99.40
2018-07-30T02:26:45.646Z,99.80
2018-07-30T02:29:14.490Z,99.50
2018-07-30T02:31:43.330Z,99.60
2018-07-30T02:34:12.203Z,99.70
2018-07-30T02:36:41.124Z,99.70
2018-07-30T02:39:12.687Z,99.70
2018-07-30T02:41:41.870Z,99.70
2018-07-30T02:44:10.864Z,99.60
2018-07-30T02:46:39.921Z,99.60
2018-07-30T02:49:09.727Z,99.60
2018-07-30T02:51:38.588Z,99.70
2018-07-30T02:54:07.719Z,99.70
2018-07-30T02:56:36.643Z,99.80
2018-07-30T02:59:05.630Z,99.70
2018-07-30T03:01:34.492Z,99.70
2018-07-30T03:04:03.359Z,99.80
2018-07-30T03:06:32.242Z,99.80
2018-07-30T03:09:01.111Z,99.90
2018-07-30T03:11:29.986Z,99.90
2018-07-30T03:13:58.899Z,99.90
2018-07-30T03:16:27.743Z,99.90
2018-07-30T03:18:56.599Z,99.90
2018-07-30T03:21:25.438Z,99.90
2018-07-30T03:23:54.274Z,99.90
2018-07-30T03:28:52.307Z,99.80
2018-07-30T03:31:21.429Z,99.80
2018-07-30T03:33:50.282Z,99.80
2018-07-30T03:36:19.127Z,99.50
2018-07-30T03:38:47.979Z,99.90
2018-07-30T03:41:16.954Z,99.80
2018-07-30T03:43:45.782Z,99.90
2018-07-30T03:46:14.691Z,99.90
2018-07-30T03:48:43.543Z,99.90
2018-07-30T03:51:12.528Z,99.90
2018-07-30T03:53:41.348Z,99.90
2018-07-30T03:56:10.212Z,99.90
2018-07-30T03:58:39.036Z,99.90
2018-07-30T04:01:07.967Z,99.90
2018-07-30T04:03:36.854Z,99.90
2018-07-30T04:06:05.848Z,99.90
2018-07-30T04:08:34.831Z,99.90
2018-07-30T04:11:03.724Z,99.90
2018-07-30T04:13:32.617Z,99.90
2018-07-30T04:16:01.435Z,99.90
2018-07-30T04:18:30.278Z,99.90
2018-07-30T04:20:59.198Z,99.90
2018-07-30T04:23:28.035Z,99.90
2018-07-30T04:25:56.867Z,99.90
2018-07-30T04:28:25.802Z,99.90
2018-07-30T04:30:54.802Z,99.90
2018-07-30T04:33:24.200Z,99.90
2018-07-30T04:35:53.343Z,99.90
2018-07-30T04:38:22.210Z,99.90
2018-07-30T04:40:51.136Z,99.90
2018-07-30T04:43:19.991Z,99.90
2018-07-30T04:48:17.592Z,99.90
2018-07-30T04:50:46.537Z,99.70
2018-07-30T04:53:15.424Z,99.80
2018-07-30T04:55:44.304Z,99.60
2018-07-30T04:58:13.151Z,99.90
2018-07-30T05:00:42.315Z,99.70
2018-07-30T05:03:11.263Z,99.50
2018-07-30T05:05:40.210Z,99.40
2018-07-30T05:08:09.026Z,99.40
2018-07-30T05:13:07.723Z,99.20
2018-07-30T05:18:05.843Z,99.30
2018-07-30T05:20:35.292Z,99.00
2018-07-30T05:23:04.285Z,98.80
2018-07-30T05:25:33.227Z,98.80
2018-07-30T05:28:02.025Z,98.80
2018-07-30T05:30:30.987Z,98.70
2018-07-30T05:32:59.859Z,99.00
2018-07-30T05:35:29.245Z,98.70
2018-07-30T05:37:58.186Z,98.80
2018-07-30T05:40:27.068Z,98.80
2018-07-30T05:42:55.918Z,98.60
2018-07-30T05:45:24.791Z,98.90
2018-07-30T05:47:53.661Z,99.00
2018-07-30T05:50:22.527Z,98.50
2018-07-30T05:52:51.395Z,98.60
2018-07-30T05:55:20.271Z,98.50
2018-07-30T05:57:49.123Z,98.40
2018-07-30T06:00:18.038Z,98.90
2018-07-30T06:02:47.236Z,98.50
2018-07-30T06:05:16.187Z,98.50
2018-07-30T06:07:45.043Z,98.70
2018-07-30T06:15:11.429Z,98.60
2018-07-30T06:17:41.210Z,98.60
2018-07-30T06:20:10.967Z,98.50
2018-07-30T06:22:40.177Z,98.50
2018-07-30T06:25:09.068Z,98.90
2018-07-30T06:27:37.997Z,98.10
2018-07-30T06:35:05.802Z,98.10
2018-07-30T06:37:34.964Z,97.70
2018-07-30T06:40:04.050Z,97.70
2018-07-30T06:42:32.976Z,97.70
2018-07-30T06:45:01.807Z,97.80
2018-07-30T06:47:30.678Z,98.10
2018-07-30T06:49:59.508Z,98.20
2018-07-30T06:52:28.345Z,98.20
2018-07-30T06:54:57.165Z,98.10
2018-07-30T06:57:26.009Z,98.10
2018-07-30T06:59:54.864Z,98.00
2018-07-30T07:02:23.724Z,98.10
2018-07-30T07:09:50.212Z,98.60
2018-07-30T07:12:19.082Z,98.00
2018-07-30T07:14:47.904Z,97.80
2018-07-30T07:17:16.791Z,97.90
2018-07-30T07:19:45.662Z,98.00
2018-07-30T07:22:14.499Z,98.00
2018-07-30T07:24:43.336Z,98.20
2018-07-30T07:27:12.276Z,98.20
2018-07-30T07:29:41.096Z,98.10
2018-07-30T07:34:39.503Z,98.20
2018-07-30T07:37:08.368Z,98.10
2018-07-30T07:39:37.267Z,97.80
2018-07-30T07:42:06.987Z,97.30
2018-07-30T07:44:36.640Z,97.80
2018-07-30T07:47:06.180Z,97.20
2018-07-30T07:49:35.442Z,97.30
2018-07-30T07:52:04.688Z,96.90
2018-07-30T07:54:34.039Z,96.70
2018-07-30T07:57:03.486Z,97.20
2018-07-30T07:59:33.080Z,97.30
2018-07-30T08:02:02.280Z,97.30
2018-07-30T08:04:31.319Z,97.10
2018-07-30T08:07:00.754Z,96.40
2018-07-30T08:09:29.959Z,96.50
2018-07-30T08:11:59.146Z,96.10
2018-07-30T08:14:28.260Z,96.80
2018-07-30T08:16:57.452Z,95.60
2018-07-30T08:19:26.722Z,95.60
2018-07-30T08:21:56.033Z,94.90
2018-07-30T08:24:25.662Z,94.50
2018-07-30T08:29:24.000Z,94.50
2018-07-30T08:31:53.330Z,94.80
2018-07-30T08:34:22.733Z,94.90
2018-07-30T08:36:51.863Z,94.20
2018-07-30T08:39:21.252Z,94.40
2018-07-30T08:41:50.531Z,93.30
2018-07-30T08:44:20.002Z,92.50
2018-07-30T08:46:49.348Z,93.30
2018-07-30T08:49:19.184Z,93.70
2018-07-30T08:51:48.315Z,93.90
2018-07-30T08:56:46.796Z,93.20
2018-07-30T08:59:15.836Z,92.30
2018-07-30T09:01:45.161Z,92.60
2018-07-30T09:04:14.366Z,92.70
2018-07-30T09:06:44.003Z,91.70
2018-07-30T09:09:12.953Z,91.90
2018-07-30T09:11:42.765Z,92.20
2018-07-30T09:14:11.668Z,93.30
2018-07-30T09:16:40.535Z,92.40
2018-07-30T09:19:09.387Z,91.70
2018-07-30T09:21:38.215Z,91.70
2018-07-30T09:24:07.123Z,91.30
2018-07-30T09:26:35.958Z,91.90
2018-07-30T09:29:04.852Z,90.90
2018-07-30T09:31:33.695Z,90.50
2018-07-30T09:34:02.626Z,90.40
2018-07-30T09:39:00.303Z,88.20
2018-07-30T09:44:04.875Z,88.80
2018-07-30T09:46:33.787Z,88.60
2018-07-30T09:49:02.727Z,87.60
2018-07-30T09:51:31.576Z,88.60
2018-07-30T09:54:00.414Z,90.10
2018-07-30T09:56:29.258Z,90.70
2018-07-30T09:58:58.130Z,90.80
2018-07-30T10:01:28.855Z,90.70
2018-07-30T10:03:58.908Z,90.30
2018-07-30T10:06:27.869Z,89.90
2018-07-30T10:08:56.775Z,87.60
2018-07-30T10:11:25.608Z,88.70
2018-07-30T10:13:54.439Z,88.00
2018-07-30T10:16:23.290Z,88.00
2018-07-30T10:18:53.147Z,89.30
2018-07-30T10:21:21.983Z,88.80
2018-07-30T10:23:50.909Z,89.80
2018-07-30T10:26:19.707Z,86.90
2018-07-30T10:28:48.540Z,87.40
2018-07-30T10:31:17.947Z,87.30
2018-07-30T10:33:47.106Z,87.40
2018-07-30T10:36:16.041Z,85.80
2018-07-30T10:38:44.898Z,85.40
2018-07-30T10:41:13.791Z,83.80
2018-07-30T10:43:42.647Z,85.40
2018-07-30T10:46:11.560Z,87.40
2018-07-30T10:48:40.388Z,88.00
2018-07-30T10:53:38.073Z,90.20
2018-07-30T10:56:06.950Z,90.30
2018-07-30T10:58:35.800Z,89.50
2018-07-30T11:01:04.710Z,88.80
2018-07-30T11:03:33.484Z,87.70
2018-07-30T11:06:02.412Z,88.80
2018-07-30T11:08:31.260Z,87.50
2018-07-30T11:11:00.124Z,86.70
2018-07-30T11:13:29.211Z,87.80
2018-07-30T11:15:58.119Z,87.50
2018-07-30T11:18:27.051Z,87.50
2018-07-30T11:20:55.904Z,88.00
2018-07-30T11:25:53.642Z,88.50
2018-07-30T11:28:22.583Z,86.80
2018-07-30T11:30:51.375Z,86.90
2018-07-30T11:33:20.254Z,87.30
2018-07-30T11:35:49.119Z,87.60
2018-07-30T11:40:46.739Z,85.80
2018-07-30T11:43:15.559Z,87.70
2018-07-30T11:45:44.408Z,88.40
2018-07-30T11:48:13.268Z,89.30
2018-07-30T11:50:42.115Z,87.40
2018-07-30T11:53:10.952Z,88.00
2018-07-30T11:55:39.792Z,88.00
2018-07-30T11:58:08.654Z,88.60
2018-07-30T12:00:37.599Z,89.30
2018-07-30T12:03:06.466Z,90.20
2018-07-30T12:05:35.355Z,90.00
2018-07-30T12:08:04.215Z,90.60
2018-07-30T12:10:33.105Z,89.80
2018-07-30T12:13:01.951Z,88.10
2018-07-30T12:15:30.829Z,88.90
2018-07-30T12:17:59.678Z,88.10
2018-07-30T12:20:29.136Z,87.90
2018-07-30T12:22:58.038Z,86.90
2018-07-30T12:27:55.663Z,87.00
2018-07-30T12:30:24.716Z,82.10
2018-07-30T12:32:54.305Z,80.40
2018-07-30T12:35:23.645Z,80.10
2018-07-30T12:37:53.015Z,83.10
2018-07-30T12:40:21.927Z,80.00
2018-07-30T12:42:51.639Z,79.30
2018-07-30T12:45:26.095Z,78.20
2018-07-30T12:47:54.939Z,79.90
2018-07-30T12:50:24.123Z,80.10
2018-07-30T12:52:53.155Z,79.10
2018-07-30T12:55:22.053Z,77.00
2018-07-30T12:57:51.290Z,79.10
2018-07-30T13:00:20.835Z,78.20
2018-07-30T13:02:49.732Z,79.90
2018-07-30T13:05:19.499Z,80.20
2018-07-30T13:07:49.187Z,81.50
2018-07-30T13:10:18.231Z,82.70
2018-07-30T13:12:47.359Z,79.50
2018-07-30T13:15:16.479Z,81.30
2018-07-30T13:17:45.883Z,81.40
2018-07-30T13:22:43.905Z,81.60
2018-07-30T13:27:41.964Z,79.40
2018-07-30T13:30:10.919Z,79.80
2018-07-30T13:32:39.905Z,80.00
2018-07-30T13:42:35.639Z,81.20
2018-07-30T13:45:05.679Z,79.70
2018-07-30T13:47:35.282Z,80.00
2018-07-30T13:50:05.795Z,79.60
2018-07-30T13:52:34.747Z,79.10
2018-07-30T13:55:04.285Z,78.60
2018-07-30T13:57:33.136Z,76.50
2018-07-30T14:00:02.496Z,77.90
2018-07-30T14:02:31.365Z,78.30
2018-07-30T14:05:00.335Z,75.80
2018-07-30T14:07:29.500Z,74.60
2018-07-30T14:09:58.579Z,76.10
2018-07-30T14:12:27.617Z,74.00
2018-07-30T14:14:56.688Z,73.50
2018-07-30T14:17:25.740Z,75.40
2018-07-30T14:19:54.603Z,77.40
2018-07-30T14:22:23.521Z,77.40
2018-07-30T14:27:21.139Z,80.00
2018-07-30T14:29:50.024Z,79.00
2018-07-30T14:32:18.931Z,79.50
2018-07-30T14:34:47.757Z,79.80
2018-07-30T14:39:45.422Z,81.80
2018-07-30T14:42:14.286Z,84.30
2018-07-30T14:44:43.157Z,86.20
2018-07-30T14:47:12.064Z,90.40
2018-07-30T14:49:40.959Z,90.70
2018-07-30T14:52:09.822Z,91.40
2018-07-30T14:54:38.748Z,91.60
2018-07-30T14:57:07.636Z,92.10
2018-07-30T14:59:36.697Z,94.00
2018-07-30T15:04:34.643Z,94.90
2018-07-30T15:07:04.576Z,95.20
2018-07-30T15:09:33.449Z,95.10
2018-07-30T15:12:02.670Z,94.30
2018-07-30T15:14:31.520Z,94.60
2018-07-30T15:17:00.366Z,94.80
2018-07-30T15:19:29.277Z,95.00
2018-07-30T15:21:58.150Z,96.00
2018-07-30T15:26:55.775Z,95.40
2018-07-30T15:29:24.690Z,95.40
2018-07-30T15:31:53.563Z,96.10
2018-07-30T15:34:22.408Z,96.50
2018-07-30T15:36:51.301Z,96.00
2018-07-30T15:44:17.720Z,95.40
2018-07-30T15:46:46.633Z,95.00
2018-07-30T15:49:16.095Z,94.90
2018-07-30T15:51:44.910Z,95.30
2018-07-30T15:54:13.727Z,95.60
2018-07-30T15:56:42.537Z,95.70
2018-07-30T15:59:11.655Z,95.40
2018-07-30T16:01:40.544Z,95.40
2018-07-30T16:04:09.461Z,95.50
2018-07-30T16:06:38.542Z,95.60
2018-07-30T16:09:08.014Z,95.40
2018-07-30T16:11:37.216Z,95.40
2018-07-30T16:14:06.164Z,95.70
2018-07-30T16:19:03.794Z,95.70
2018-07-30T16:21:32.644Z,95.30
2018-07-30T16:24:01.595Z,95.50
2018-07-30T16:26:30.488Z,95.40
2018-07-30T16:28:59.348Z,95.70
2018-07-30T16:31:28.219Z,95.70
2018-07-30T16:36:25.864Z,95.70
2018-07-30T16:38:54.688Z,95.40
2018-07-30T16:41:24.034Z,95.00
2018-07-30T16:43:52.984Z,95.00
2018-07-30T16:46:21.860Z,95.30
2018-07-30T16:48:50.732Z,95.30
2018-07-30T16:58:19.813Z,95.30
2018-07-30T17:00:48.686Z,94.90
2018-07-30T17:03:17.569Z,94.90
2018-07-30T17:05:46.453Z,95.30
2018-07-30T17:13:12.960Z,95.20
2018-07-30T17:15:41.856Z,95.60
2018-07-30T17:18:10.728Z,96.50
2018-07-30T17:20:39.596Z,96.30
2018-07-30T17:23:08.521Z,95.80
2018-07-30T17:25:37.344Z,96.30
2018-07-30T17:28:06.355Z,96.10
2018-07-30T17:33:04.035Z,94.90
2018-07-30T17:38:01.710Z,94.70
2018-07-30T17:40:30.554Z,94.60
2018-07-30T17:42:59.364Z,94.90
2018-07-30T17:45:28.350Z,95.00
2018-07-30T17:47:57.194Z,95.20
2018-07-30T17:50:26.110Z,95.20
2018-07-30T17:52:54.963Z,95.40
2018-07-30T17:55:24.236Z,95.50
2018-07-30T17:57:53.133Z,95.60
2018-07-30T18:00:21.979Z,95.40
2018-07-30T18:02:51.324Z,95.70
2018-07-30T18:07:50.685Z,96.40
2018-07-30T18:10:19.803Z,96.50
2018-07-30T18:12:48.757Z,96.60
2018-07-30T18:15:17.703Z,96.60
2018-07-30T18:17:47.707Z,96.60
2018-07-30T18:25:15.784Z,96.70
2018-07-30T18:27:44.750Z,96.50
2018-07-30T18:30:13.716Z,96.40
2018-07-30T18:32:42.553Z,96.40
2018-07-30T18:35:11.474Z,96.60
2018-07-30T18:37:40.390Z,96.60
2018-07-30T18:40:10.383Z,96.80
2018-07-30T18:42:39.706Z,96.70
2018-07-30T18:45:08.895Z,96.90
2018-07-30T18:47:37.851Z,97.00
2018-07-30T18:52:35.959Z,97.10
2018-07-30T18:55:05.167Z,97.30
2018-07-30T18:57:34.096Z,97.30
2018-07-30T19:00:03.892Z,97.40
2018-07-30T19:02:32.817Z,97.60
2018-07-30T19:05:01.825Z,97.50
2018-07-30T19:07:31.852Z,97.50
2018-07-30T19:10:00.818Z,97.20
2018-07-30T19:12:29.725Z,97.10
2018-07-30T19:14:59.137Z,97.00
2018-07-30T19:19:57.063Z,97.00
2018-07-30T19:22:25.933Z,97.00
2018-07-30T19:24:55.208Z,96.70
2018-07-30T19:27:24.081Z,97.10
2018-07-30T19:29:52.964Z,97.10
2018-07-30T19:32:22.102Z,97.10
2018-07-30T19:34:51.429Z,97.20
2018-07-30T19:37:20.364Z,97.20
2018-07-30T19:39:49.272Z,97.30
2018-07-30T19:42:18.140Z,97.20
2018-07-30T19:47:15.847Z,97.60
2018-07-30T19:49:44.911Z,97.40
2018-07-30T19:52:13.832Z,97.50
2018-07-30T19:54:42.699Z,97.40
2018-07-30T19:57:11.667Z,97.40
2018-07-30T19:59:40.560Z,97.40
2018-07-30T20:04:39.515Z,97.50
2018-07-30T20:07:09.227Z,97.50
2018-07-30T20:09:38.186Z,97.50
2018-07-30T20:12:07.187Z,97.50
2018-07-30T20:14:37.135Z,97.50
2018-07-30T20:17:06.462Z,97.50
2018-07-30T20:19:35.725Z,97.40
2018-07-30T20:22:04.996Z,97.50
2018-07-30T20:27:03.422Z,97.60
2018-07-30T20:29:32.658Z,97.60
2018-07-30T20:32:02.005Z,97.60
2018-07-30T20:34:31.632Z,97.50
2018-07-30T20:37:00.978Z,97.50
2018-07-30T20:39:30.015Z,97.50
2018-07-30T20:41:59.064Z,97.40
2018-07-30T20:46:56.873Z,97.60
2018-07-30T20:49:26.452Z,97.70
2018-07-30T20:51:55.505Z,97.70
2018-07-30T20:54:25.558Z,97.70
2018-07-30T20:56:54.553Z,97.70
2018-07-30T20:59:26.010Z,97.70
2018-07-30T21:01:56.486Z,97.80
2018-07-30T21:04:26.167Z,97.90
2018-07-30T21:06:57.236Z,98.00
2018-07-30T21:09:26.417Z,97.90
2018-07-30T21:11:55.339Z,97.90
2018-07-30T21:14:24.456Z,97.80
2018-07-30T21:16:53.358Z,97.80
2018-07-30T21:19:22.244Z,97.70
2018-07-30T21:21:51.214Z,97.90
2018-07-30T21:24:20.735Z,98.10
2018-07-30T21:26:49.663Z,98.10
2018-07-30T21:29:18.558Z,98.20
2018-07-30T21:31:47.467Z,98.20
2018-07-30T21:34:17.282Z,98.30
2018-07-30T21:36:46.206Z,98.30
2018-07-30T21:39:15.072Z,98.30
2018-07-30T21:41:43.950Z,98.30
2018-07-30T21:44:12.793Z,98.40
2018-07-30T21:46:42.012Z,98.40
2018-07-30T21:49:10.892Z,98.30
2018-07-30T21:51:39.771Z,98.50
2018-07-30T21:56:37.435Z,99.00
2018-07-30T21:59:06.327Z,98.50
2018-07-30T22:01:35.209Z,98.60
2018-07-30T22:04:04.223Z,98.60
2018-07-30T22:06:33.135Z,98.70
2018-07-30T22:09:02.064Z,98.70
2018-07-30T22:11:30.939Z,98.70
2018-07-30T22:13:59.811Z,98.70
2018-07-30T22:18:57.604Z,98.60
2018-07-30T22:21:26.472Z,98.50
2018-07-30T22:23:55.331Z,98.40
2018-07-30T22:26:24.256Z,98.50
2018-07-30T22:31:21.880Z,98.80
2018-07-30T22:33:50.757Z,98.50
2018-07-30T22:36:19.668Z,98.50
2018-07-30T22:38:48.560Z,98.50
2018-07-30T22:41:17.407Z,98.40
2018-07-30T22:43:46.284Z,98.50
2018-07-30T22:46:15.152Z,98.50
2018-07-30T22:48:43.995Z,98.50
2018-07-30T22:51:12.858Z,98.60
2018-07-30T22:53:41.722Z,98.40
2018-07-30T22:56:10.579Z,98.50
2018-07-30T22:58:39.450Z,98.50
2018-07-30T23:01:08.368Z,98.50
2018-07-30T23:03:37.263Z,98.60
2018-07-30T23:06:06.172Z,98.60
2018-07-30T23:08:35.055Z,98.70
2018-07-30T23:11:03.918Z,98.70
2018-07-30T23:13:32.808Z,98.70
2018-07-30T23:16:01.747Z,98.70
2018-07-30T23:18:30.575Z,98.70
2018-07-30T23:20:59.438Z,98.70
2018-07-30T23:23:28.300Z,98.70
2018-07-30T23:25:57.231Z,98.60
2018-07-30T23:28:26.076Z,98.60
2018-07-30T23:30:54.955Z,98.50
2018-07-30T23:33:23.854Z,98.50
2018-07-30T23:35:52.815Z,98.50
2018-07-30T23:38:21.654Z,98.40
2018-07-30T23:40:50.535Z,98.50
2018-07-30T23:43:19.453Z,98.60
2018-07-30T23:48:17.987Z,98.40
2018-07-30T23:53:15.600Z,98.30
2018-07-30T23:55:44.474Z,98.20
2018-07-30T23:58:13.454Z,98.20
